Inuvik, Canada
Current Conditions -  °F | °C
As of 3:00 PM on Thursday 23 Oct 2014 (Local Time) from CYEV Reporting Station
Light Snow Light Snow  
Wind Chill: 18°   Ceiling: 1000
Heat Index: 18°   Visibility: 2mi
Dew Point: 14°   Wind: 3mph
Humidity: 86%   Direction: 340°NNW
Pressure: 29.89"   Gusts: NA
Location:  68.36°N, 133.73°W
Report Text: CYEV 232100Z 34003KT 2SM -SN VV010 M08/M10 A2989 RMK SN8 SLP128
Loading
Personal Weather Stations






























Interactive Weather Map
Tropical Storm Tracking
New forecast layout! Learn more

10-Day Weather Forecast

Advertisements
Track Severe Weather on mobile